Melcroft, Pennsylvania
Current Conditions -  °F | °C
As of 1:50 PM on Monday 20 Oct 2014 (Local Time) from KLBE Reporting Station
Broken Clouds Broken Clouds  
Wind Chill: 14°   Ceiling: 20000
Heat Index: 14°   Visibility: 15mi
Dew Point:   Wind: 17mph
Humidity: 59%   Direction: 220°SW
Pressure: 29.94"   Gusts: 26mph
Location:  40.05°N, 79.39°W
Report Text: KLBE 201750Z 22015G23KT 15SM FEW100 BKN200 14/06 A2994
Loading
Personal Weather Stations






























Interactive Weather Map
Tropical Storm Tracking
New forecast layout! Learn more

10-Day Weather Forecast

Advertisements
Track Severe Weather on mobile